Time,TemperatureF,DewpointF,PressureIn,WindDirection,WindDirectionDegrees,WindSpeedMPH,WindSpeedGustMPH,Humidity,HourlyPrecipIn,Conditions,Clouds,dailyrainin,SoftwareType,DateUTC
2013-06-12 00:03:00,75.0,73.0,30.04,ENE,73,0.0,0.0,93,0.00,,,1.74,,2013-06-12 04:03:00,
2013-06-12 00:13:00,75.0,73.0,30.04,ENE,73,0.0,0.0,93,0.00,,,1.74,,2013-06-12 04:13:00,
2013-06-12 00:23:00,74.0,72.0,30.04,ENE,73,0.0,0.0,93,0.00,,,1.74,,2013-06-12 04:23:00,
2013-06-12 00:33:00,74.0,72.0,30.04,ENE,73,0.0,0.0,94,0.00,,,1.74,,2013-06-12 04:33:00,
2013-06-12 00:42:00,74.0,72.0,30.04,ENE,73,0.0,0.0,94,0.00,,,1.74,,2013-06-12 04:42:00,
2013-06-12 00:53:00,74.0,72.0,30.04,ENE,73,0.0,0.0,94,0.00,,,1.74,,2013-06-12 04:53:00,
2013-06-12 01:03:00,74.0,72.0,30.04,ENE,73,0.0,0.0,95,0.00,,,1.74,,2013-06-12 05:03:00,
2013-06-12 01:12:00,74.0,72.0,30.04,ENE,73,0.0,0.0,95,0.00,,,1.74,,2013-06-12 05:12:00,
2013-06-12 01:22:00,74.0,72.0,30.04,ENE,73,0.0,0.0,95,0.00,,,1.74,,2013-06-12 05:22:00,
2013-06-12 01:32:00,73.0,71.0,30.05,ENE,72,1.0,3.0,95,0.00,,,1.74,,2013-06-12 05:32:00,
2013-06-12 01:42:00,73.0,71.0,30.04,ENE,72,0.0,0.0,95,0.00,,,1.74,,2013-06-12 05:42:00,
2013-06-12 01:52:00,73.0,71.0,30.04,ENE,72,0.0,0.0,95,0.00,,,1.74,,2013-06-12 05:52:00,
2013-06-12 02:02:00,73.0,71.0,30.04,ENE,72,0.0,0.0,95,0.00,,,1.74,,2013-06-12 06:02:00,
2013-06-12 02:12:00,73.0,71.0,30.04,ENE,72,0.0,0.0,95,0.00,,,1.74,,2013-06-12 06:12:00,
2013-06-12 02:22:00,72.0,70.0,30.04,ENE,72,0.0,0.0,95,0.00,,,1.74,,2013-06-12 06:22:00,
2013-06-12 02:32:00,72.0,71.0,30.04,ENE,72,0.0,0.0,96,0.00,,,1.74,,2013-06-12 06:32:00,
2013-06-12 02:42:00,72.0,71.0,30.03,ENE,72,0.0,0.0,96,0.00,,,1.74,,2013-06-12 06:42:00,
2013-06-12 02:52:00,72.0,71.0,30.03,ENE,72,0.0,0.0,96,0.00,,,1.74,,2013-06-12 06:52:00,
2013-06-12 03:02:00,72.0,71.0,30.03,ENE,72,0.0,0.0,96,0.00,,,1.74,,2013-06-12 07:02:00,
2013-06-12 03:12:00,72.0,71.0,30.03,ENE,72,0.0,0.0,96,0.00,,,1.74,,2013-06-12 07:12:00,
2013-06-12 03:22:00,72.0,71.0,30.03,ENE,72,0.0,0.0,96,0.00,,,1.74,,2013-06-12 07:22:00,
2013-06-12 03:33:00,72.0,71.0,30.03,ENE,72,0.0,0.0,96,0.00,,,1.74,,2013-06-12 07:33:00,
2013-06-12 03:43:00,72.0,71.0,30.03,ENE,72,0.0,0.0,96,0.00,,,1.74,,2013-06-12 07:43:00,
2013-06-12 03:53:00,72.0,71.0,30.02,ENE,72,0.0,0.0,97,0.00,,,1.74,,2013-06-12 07:53:00,
2013-06-12 04:02:00,71.0,70.0,30.02,ENE,72,0.0,0.0,96,0.00,,,1.74,,2013-06-12 08:02:00,
2013-06-12 04:12:00,71.0,70.0,30.02,ENE,72,0.0,0.0,96,0.00,,,1.74,,2013-06-12 08:12:00,
2013-06-12 04:22:00,71.0,70.0,30.02,ENE,72,0.0,0.0,97,0.00,,,1.74,,2013-06-12 08:22:00,
2013-06-12 04:33:00,71.0,70.0,30.02,ENE,72,0.0,0.0,97,0.00,,,1.74,,2013-06-12 08:33:00,
2013-06-12 04:43:00,71.0,70.0,30.02,ENE,72,0.0,0.0,97,0.00,,,1.74,,2013-06-12 08:43:00,
2013-06-12 04:53:00,71.0,70.0,30.02,ENE,72,0.0,0.0,97,0.00,,,1.74,,2013-06-12 08:53:00,
2013-06-12 05:01:00,71.0,70.0,30.02,ENE,72,0.0,0.0,97,0.00,,,1.74,,2013-06-12 09:01:00,
2013-06-12 05:11:00,71.0,70.0,30.03,ENE,72,0.0,0.0,97,0.00,,,1.74,,2013-06-12 09:11:00,
2013-06-12 05:22:00,71.0,70.0,30.03,ENE,72,0.0,0.0,97,0.00,,,1.74,,2013-06-12 09:22:00,
2013-06-12 05:33:00,71.0,70.0,30.03,ENE,72,0.0,0.0,97,0.00,,,1.74,,2013-06-12 09:33:00,
2013-06-12 05:42:00,71.0,70.0,30.03,ENE,72,0.0,0.0,97,0.00,,,1.74,,2013-06-12 09:42:00,
2013-06-12 05:53:00,71.0,70.0,30.04,ENE,72,0.0,0.0,97,0.00,,,1.74,,2013-06-12 09:53:00,
2013-06-12 06:02:00,71.0,70.0,30.04,ENE,72,0.0,0.0,97,0.00,,,1.74,,2013-06-12 10:02:00,
2013-06-12 06:11:00,71.0,70.0,30.04,ENE,72,0.0,0.0,97,0.00,,,1.74,,2013-06-12 10:11:00,
2013-06-12 06:23:00,71.0,70.0,30.04,ENE,72,0.0,0.0,97,0.00,,,1.74,,2013-06-12 10:23:00,
2013-06-12 06:33:00,71.0,70.0,30.04,ENE,72,0.0,0.0,97,0.00,,,1.74,,2013-06-12 10:33:00,
2013-06-12 06:43:00,71.0,70.0,30.04,ENE,72,0.0,0.0,97,0.00,,,1.74,,2013-06-12 10:43:00,
2013-06-12 06:53:00,71.0,70.0,30.03,ENE,72,0.0,0.0,97,0.00,,,1.74,,2013-06-12 10:53:00,
2013-06-12 07:02:00,71.0,70.0,30.03,ENE,72,0.0,0.0,97,0.00,,,1.74,,2013-06-12 11:02:00,
2013-06-12 07:12:00,71.0,70.0,30.03,ENE,72,0.0,0.0,98,0.00,,,1.74,,2013-06-12 11:12:00,
2013-06-12 07:24:00,71.0,70.0,30.04,ENE,72,0.0,0.0,98,0.00,,,1.74,,2013-06-12 11:24:00,
2013-06-12 07:33:00,72.0,71.0,30.04,ENE,72,0.0,0.0,98,0.00,,,1.74,,2013-06-12 11:33:00,
2013-06-12 07:43:00,73.0,72.0,30.05,ENE,72,0.0,0.0,98,0.00,,,1.74,,2013-06-12 11:43:00,
2013-06-12 07:53:00,74.0,73.0,30.04,ENE,72,0.0,0.0,98,0.00,,,1.74,,2013-06-12 11:53:00,
2013-06-12 08:02:00,75.0,74.0,30.04,ENE,72,0.0,0.0,98,0.00,,,1.74,,2013-06-12 12:02:00,
2013-06-12 08:11:00,75.0,74.0,30.05,ENE,72,0.0,0.0,97,0.00,,,1.74,,2013-06-12 12:11:00,
2013-06-12 08:23:00,76.0,75.0,30.05,ENE,72,0.0,0.0,97,0.00,,,1.74,,2013-06-12 12:23:00,
2013-06-12 08:33:00,77.0,76.0,30.05,ENE,72,0.0,1.0,96,0.00,,,1.74,,2013-06-12 12:33:00,
2013-06-12 08:42:00,77.0,76.0,30.05,ENE,72,0.0,0.0,96,0.00,,,1.74,,2013-06-12 12:42:00,
2013-06-12 08:53:00,77.0,75.0,30.06,ENE,72,0.0,0.0,95,0.00,,,1.74,,2013-06-12 12:53:00,
2013-06-12 09:01:00,78.0,77.0,30.06,ENE,72,0.0,0.0,96,0.00,,,1.74,,2013-06-12 13:01:00,
2013-06-12 09:12:00,78.0,76.0,30.06,ENE,72,0.0,0.0,95,0.00,,,1.74,,2013-06-12 13:12:00,
2013-06-12 09:22:00,79.0,77.0,30.06,ENE,72,0.0,2.0,94,0.00,,,1.74,,2013-06-12 13:22:00,
2013-06-12 09:33:00,80.0,78.0,30.05,NW,309,0.0,1.0,93,0.00,,,1.74,,2013-06-12 13:33:00,
2013-06-12 09:43:00,81.0,78.0,30.05,NW,306,0.0,3.0,91,0.00,,,1.74,,2013-06-12 13:43:00,
2013-06-12 09:53:00,82.0,78.0,30.05,NW,326,0.0,3.0,88,0.00,,,1.74,,2013-06-12 13:53:00,
2013-06-12 10:02:00,82.0,78.0,30.05,NW,326,0.0,3.0,88,0.00,,,1.74,,2013-06-12 14:02:00,
2013-06-12 10:11:00,82.0,77.0,30.06,NW,308,4.0,7.0,86,0.00,,,1.74,,2013-06-12 14:11:00,
2013-06-12 10:22:00,83.0,77.0,30.06,NW,322,3.0,7.0,82,0.00,,,1.74,,2013-06-12 14:22:00,
2013-06-12 10:24:00,82.0,77.0,30.06,NW,320,3.0,6.0,84,0.00,,,1.74,,2013-06-12 14:24:00,
2013-06-12 10:33:00,83.0,78.0,30.06,WNW,293,1.0,3.0,84,0.00,,,1.74,,2013-06-12 14:33:00,
2013-06-12 10:43:00,83.0,77.0,30.06,NW,322,3.0,7.0,82,0.00,,,1.74,,2013-06-12 14:43:00,
2013-06-12 10:53:00,83.0,77.0,30.06,NW,322,3.0,7.0,82,0.00,,,1.74,,2013-06-12 14:53:00,
2013-06-12 11:01:00,83.0,77.0,30.06,NW,322,3.0,7.0,82,0.00,,,1.74,,2013-06-12 15:01:00,
2013-06-12 11:12:00,83.0,77.0,30.06,NW,322,3.0,7.0,82,0.00,,,1.74,,2013-06-12 15:12:00,
2013-06-12 14:53:00,88.0,77.0,30.01,ENE,71,1.0,5.0,71,0.00,,,0.00,,2013-06-12 18:53:00,
2013-06-12 15:02:00,89.0,77.0,30.01,East,94,2.0,3.0,68,0.00,,,0.00,,2013-06-12 19:02:00,
2013-06-12 15:11:00,87.0,78.0,30.01,ENE,77,3.0,7.0,74,0.00,,,0.00,,2013-06-12 19:11:00,
2013-06-12 15:22:00,87.0,78.0,30.01,East,96,4.0,10.0,75,0.00,,,0.00,,2013-06-12 19:22:00,
2013-06-12 15:32:00,86.0,76.0,30.01,East,82,7.0,14.0,73,0.00,,,0.00,,2013-06-12 19:32:00,
2013-06-12 15:42:00,86.0,77.0,30.02,East,96,5.0,9.0,74,0.00,,,0.00,,2013-06-12 19:42:00,
2013-06-12 15:52:00,86.0,77.0,30.02,East,96,5.0,9.0,74,0.00,,,0.00,,2013-06-12 19:52:00,
2013-06-12 16:01:00,86.0,76.0,30.03,ESE,109,5.0,13.0,72,0.00,,,0.00,,2013-06-12 20:01:00,
2013-06-12 16:11:00,87.0,76.0,30.03,ENE,76,3.0,6.0,70,0.00,,,0.00,,2013-06-12 20:11:00,
2013-06-12 16:22:00,85.0,76.0,30.04,ESE,109,1.0,5.0,74,0.00,,,0.00,,2013-06-12 20:22:00,
2013-06-12 16:32:00,84.0,75.0,30.03,SSE,164,2.0,6.0,75,0.00,,,0.00,,2013-06-12 20:32:00,
2013-06-12 16:42:00,84.0,75.0,30.02,ESE,117,3.0,5.0,74,0.00,,,0.00,,2013-06-12 20:42:00,
2013-06-12 16:54:00,84.0,76.0,30.01,East,88,6.0,12.0,76,0.00,,,0.00,,2013-06-12 20:54:00,
2013-06-12 17:01:00,84.0,75.0,30.01,SE,132,5.0,9.0,75,0.00,,,0.00,,2013-06-12 21:01:00,
2013-06-12 17:11:00,86.0,76.0,30.00,ESE,105,4.0,10.0,73,0.00,,,0.00,,2013-06-12 21:11:00,
2013-06-12 17:22:00,85.0,74.0,30.01,ESE,116,3.0,7.0,69,0.00,,,0.00,,2013-06-12 21:22:00,
2013-06-12 17:33:00,85.0,74.0,30.01,East,86,4.0,9.0,69,0.00,,,0.00,,2013-06-12 21:33:00,
2013-06-12 17:43:00,84.0,76.0,30.02,ESE,123,0.0,5.0,76,0.00,,,0.00,,2013-06-12 21:43:00,
2013-06-12 17:52:00,84.0,76.0,30.02,East,87,3.0,5.0,77,0.00,,,0.00,,2013-06-12 21:52:00,
2013-06-12 18:01:00,84.0,76.0,30.02,ESE,102,3.0,6.0,78,0.00,,,0.00,,2013-06-12 22:01:00,
2013-06-12 18:11:00,82.0,74.0,30.01,SE,146,2.0,3.0,78,0.00,,,0.00,,2013-06-12 22:11:00,
2013-06-12 18:22:00,82.0,75.0,30.02,SSE,156,0.0,6.0,80,0.00,,,0.00,,2013-06-12 22:22:00,
2013-06-12 18:32:00,82.0,75.0,30.02,SSE,156,0.0,6.0,80,0.00,,,0.00,,2013-06-12 22:32:00,
2013-06-12 18:43:00,80.0,72.0,30.01,SSW,194,4.0,7.0,77,0.00,,,0.00,,2013-06-12 22:43:00,
2013-06-12 18:52:00,79.0,70.0,30.00,SSW,204,1.0,6.0,75,0.00,,,0.00,,2013-06-12 22:52:00,
2013-06-12 19:02:00,79.0,71.0,30.00,SSW,192,0.0,1.0,77,0.00,,,0.00,,2013-06-12 23:02:00,
2013-06-12 19:12:00,79.0,70.0,30.00,SE,138,0.0,3.0,75,0.00,,,0.00,,2013-06-12 23:12:00,
2013-06-12 19:22:00,79.0,71.0,30.01,SSE,158,0.0,3.0,76,0.00,,,0.00,,2013-06-12 23:22:00,
2013-06-12 19:32:00,79.0,71.0,30.01,East,98,0.0,1.0,76,0.00,,,0.00,,2013-06-12 23:32:00,
2013-06-12 19:42:00,79.0,71.0,30.01,SE,134,0.0,0.0,77,0.00,,,0.00,,2013-06-12 23:42:00,
2013-06-12 19:52:00,79.0,71.0,30.01,SSE,157,0.0,0.0,76,0.00,,,0.00,,2013-06-12 23:52:00,
2013-06-12 20:01:00,79.0,71.0,30.01,SSE,153,0.0,0.0,77,0.00,,,0.00,,2013-06-13 00:01:00,
2013-06-12 20:12:00,79.0,71.0,30.01,SSE,153,0.0,0.0,77,0.00,,,0.00,,2013-06-13 00:12:00,
2013-06-12 20:22:00,79.0,72.0,30.01,SSE,153,0.0,0.0,79,0.00,,,0.00,,2013-06-13 00:22:00,
2013-06-12 20:32:00,78.0,72.0,30.01,SSE,153,0.0,0.0,82,0.00,,,0.00,,2013-06-13 00:32:00,
2013-06-12 20:42:00,78.0,72.0,30.01,SSE,153,0.0,0.0,82,0.00,,,0.00,,2013-06-13 00:42:00,
2013-06-12 20:52:00,78.0,72.0,30.01,SSE,153,0.0,0.0,83,0.00,,,0.00,,2013-06-13 00:52:00,
2013-06-12 21:01:00,77.0,72.0,30.01,SSE,153,0.0,0.0,85,0.00,,,0.00,,2013-06-13 01:01:00,
2013-06-12 21:12:00,76.0,72.0,30.01,SSE,153,0.0,0.0,86,0.00,,,0.00,,2013-06-13 01:12:00,
2013-06-12 21:22:00,76.0,72.0,30.02,SSE,153,0.0,0.0,87,0.00,,,0.00,,2013-06-13 01:22:00,
2013-06-12 21:32:00,76.0,72.0,30.02,SSE,153,0.0,0.0,88,0.00,,,0.00,,2013-06-13 01:32:00,
2013-06-12 21:43:00,76.0,73.0,30.03,SSE,153,0.0,0.0,89,0.00,,,0.00,,2013-06-13 01:43:00,
2013-06-12 21:53:00,76.0,73.0,30.03,SSE,153,0.0,0.0,90,0.00,,,0.00,,2013-06-13 01:53:00,
2013-06-12 22:02:00,76.0,73.0,30.03,SSE,153,0.0,0.0,91,0.00,,,0.00,,2013-06-13 02:02:00,
2013-06-12 22:12:00,75.0,72.0,30.02,SSE,153,0.0,0.0,89,0.00,,,0.00,,2013-06-13 02:12:00,
2013-06-12 22:22:00,75.0,71.0,30.03,West,278,0.0,3.0,87,0.00,,,0.00,,2013-06-13 02:22:00,
2013-06-12 22:33:00,75.0,71.0,30.03,West,278,0.0,0.0,86,0.00,,,0.00,,2013-06-13 02:33:00,
2013-06-12 22:43:00,75.0,71.0,30.03,West,278,0.0,0.0,86,0.00,,,0.00,,2013-06-13 02:43:00,
2013-06-12 22:52:00,74.0,70.0,30.03,West,278,0.0,0.0,86,0.00,,,0.00,,2013-06-13 02:52:00,
2013-06-12 23:02:00,74.0,70.0,30.03,West,278,0.0,0.0,87,0.00,,,0.00,,2013-06-13 03:02:00,
2013-06-12 23:12:00,74.0,70.0,30.03,West,278,0.0,0.0,88,0.00,,,0.00,,2013-06-13 03:12:00,
2013-06-12 23:22:00,74.0,71.0,30.03,West,278,0.0,0.0,89,0.00,,,0.00,,2013-06-13 03:22:00,
2013-06-12 23:33:00,74.0,71.0,30.03,West,278,0.0,0.0,90,0.00,,,0.00,,2013-06-13 03:33:00,
2013-06-12 23:42:00,73.0,70.0,30.03,West,278,0.0,0.0,91,0.00,,,0.00,,2013-06-13 03:42:00,
2013-06-12 23:52:00,73.0,70.0,30.04,West,278,0.0,0.0,91,0.00,,,0.00,,2013-06-13 03:52:00,